Mobile Downtown Airport
KBFM : now visible

Airfield :











YOU CAN JOIN US ON...

 
LOGIN :

Register | Disclaimer

   EN    FR    IT 

 









Legend :    VFR   Marginal VFR   IFR   Intensive IFR   Very Intensive IFR
Visi :
Ceiling :
>= 8 km
>= 3000ft
5 to 8 km
1000 to 3000 ft
1500m to 5 km
500 to 1000 ft
800 to 1500m
200 to 500 ft
< 800m
< 200 ft
Symbols :   Thunderstorms  Fog  Heavy snow  Heavy precipitations  Wind > 20 kt







- Airport Elevation : 26 ft


KBFM - Mobile Downtown

CURRENT METAR :
  • 191153Z 29009G17KT 10SM BKN015 OVC022 17/14 A2966 RMK AO2 RAB32E43 SLP042 P0000 60000 70058 T01670139 10222 20167 53012

EXPIRED METARs :
  • 191053Z VRB04KT 10SM SCT013 BKN017 BKN036 18/16 A2963 RMK AO2 SLP032 T01780161
  • 190953Z 26004KT 10SM OVC021 18/16 A2963 RMK AO2 SLP035 T01830161

TAF KBFM
Valid from the 19 at 12:00 until the 20 at 12:00 UTC


191139Z 1912/2012 30010G20KT P6SM FEW011 BKN017 OVC028
FM191500 30020G30KT P6SM OVC025
FM191900 30022G30KT P6SM VCSH OVC040
FM200100 29010G18KT P6SM OVC060
KZHU FIR / North America



MET'MAP, your aeronautical weather chart ! - Copyright ORBIFLY December 2007 - Disclaimer

ORBIFLY MET'MAP TEAM :

Programming & Development : Alexandra Zaïnal
Concept & Development : Baudouin d'Aumeries
Co-Development & Prog : Marc-Olivier Méhu
Technical & hardware support : Manuel Goepfert

Contact : metmap@orbifly.com




SOURCES & CREDITS :

   NOAA       Earth
Advisory